sensor_id;sensor_type;location;lat;lon;timestamp;P1;durP1;ratioP1;P2;durP2;ratioP2
31128;SDS011;17777;48.770;8.944;2023-07-20T00:01:26;1.70;;;0.90;;
31128;SDS011;17777;48.770;8.944;2023-07-20T00:03:52;1.10;;;1.00;;
31128;SDS011;17777;48.770;8.944;2023-07-20T00:06:20;0.95;;;0.80;;
31128;SDS011;17777;48.770;8.944;2023-07-20T00:08:47;1.52;;;0.88;;
31128;SDS011;17777;48.770;8.944;2023-07-20T00:11:13;0.95;;;0.60;;
31128;SDS011;17777;48.770;8.944;2023-07-20T00:13:39;1.40;;;0.77;;
31128;SDS011;17777;48.770;8.944;2023-07-20T00:16:06;1.33;;;0.90;;
31128;SDS011;17777;48.770;8.944;2023-07-20T00:18:32;1.70;;;0.88;;
31128;SDS011;17777;48.770;8.944;2023-07-20T00:20:57;1.05;;;0.98;;
31128;SDS011;17777;48.770;8.944;2023-07-20T00:23:25;4.95;;;0.80;;
31128;SDS011;17777;48.770;8.944;2023-07-20T00:25:51;1.25;;;0.88;;
31128;SDS011;17777;48.770;8.944;2023-07-20T00:28:17;0.90;;;0.68;;
31128;SDS011;17777;48.770;8.944;2023-07-20T00:30:43;1.00;;;0.90;;
31128;SDS011;17777;48.770;8.944;2023-07-20T00:33:12;1.40;;;0.80;;
31128;SDS011;17777;48.770;8.944;2023-07-20T00:35:42;0.77;;;0.77;;
31128;SDS011;17777;48.770;8.944;2023-07-20T00:38:07;0.95;;;0.75;;
31128;SDS011;17777;48.770;8.944;2023-07-20T00:40:40;1.42;;;1.00;;
31128;SDS011;17777;48.770;8.944;2023-07-20T00:43:06;2.20;;;0.80;;
31128;SDS011;17777;48.770;8.944;2023-07-20T00:45:33;1.20;;;0.80;;
31128;SDS011;17777;48.770;8.944;2023-07-20T00:48:01;0.68;;;0.60;;
31128;SDS011;17777;48.770;8.944;2023-07-20T00:50:29;1.20;;;0.90;;
31128;SDS011;17777;48.770;8.944;2023-07-20T00:52:57;1.27;;;0.98;;
31128;SDS011;17777;48.770;8.944;2023-07-20T00:55:23;1.95;;;0.90;;
31128;SDS011;17777;48.770;8.944;2023-07-20T00:57:52;1.05;;;0.90;;
31128;SDS011;17777;48.770;8.944;2023-07-20T01:00:18;1.08;;;0.98;;
31128;SDS011;17777;48.770;8.944;2023-07-20T01:02:44;1.75;;;1.08;;
31128;SDS011;17777;48.770;8.944;2023-07-20T01:05:12;1.52;;;0.80;;
31128;SDS011;17777;48.770;8.944;2023-07-20T01:10:39;1.17;;;0.95;;
31128;SDS011;17777;48.770;8.944;2023-07-20T01:13:10;0.90;;;0.73;;
31128;SDS011;17777;48.770;8.944;2023-07-20T01:15:40;1.33;;;0.90;;
31128;SDS011;17777;48.770;8.944;2023-07-20T01:18:07;0.95;;;0.80;;
31128;SDS011;17777;48.770;8.944;2023-07-20T01:20:33;1.60;;;1.15;;
31128;SDS011;17777;48.770;8.944;2023-07-20T01:31:47;1.25;;;1.00;;
31128;SDS011;17777;48.770;8.944;2023-07-20T01:34:17;0.68;;;0.68;;
31128;SDS011;17777;48.770;8.944;2023-07-20T01:36:44;1.15;;;0.80;;
31128;SDS011;17777;48.770;8.944;2023-07-20T01:39:13;0.93;;;0.80;;
31128;SDS011;17777;48.770;8.944;2023-07-20T01:41:39;1.58;;;1.10;;
31128;SDS011;17777;48.770;8.944;2023-07-20T01:44:05;1.10;;;0.80;;
31128;SDS011;17777;48.770;8.944;2023-07-20T01:46:31;1.35;;;0.80;;
31128;SDS011;17777;48.770;8.944;2023-07-20T01:48:57;1.63;;;0.95;;
31128;SDS011;17777;48.770;8.944;2023-07-20T01:51:23;1.50;;;0.85;;
31128;SDS011;17777;48.770;8.944;2023-07-20T01:53:49;1.02;;;0.95;;
31128;SDS011;17777;48.770;8.944;2023-07-20T01:56:15;0.82;;;0.73;;
31128;SDS011;17777;48.770;8.944;2023-07-20T01:58:40;1.08;;;0.90;;
31128;SDS011;17777;48.770;8.944;2023-07-20T02:01:06;1.17;;;0.90;;
31128;SDS011;17777;48.770;8.944;2023-07-20T02:03:32;1.50;;;1.10;;
31128;SDS011;17777;48.770;8.944;2023-07-20T02:05:58;1.73;;;0.88;;
31128;SDS011;17777;48.770;8.944;2023-07-20T02:08:24;1.88;;;0.93;;
31128;SDS011;17777;48.770;8.944;2023-07-20T02:10:50;2.50;;;0.90;;
31128;SDS011;17777;48.770;8.944;2023-07-20T02:13:17;1.48;;;0.88;;
31128;SDS011;17777;48.770;8.944;2023-07-20T02:15:43;2.63;;;0.80;;
31128;SDS011;17777;48.770;8.944;2023-07-20T02:18:09;1.98;;;1.20;;
31128;SDS011;17777;48.770;8.944;2023-07-20T02:20:35;0.80;;;0.80;;
31128;SDS011;17777;48.770;8.944;2023-07-20T02:23:01;1.50;;;0.77;;
31128;SDS011;17777;48.770;8.944;2023-07-20T02:25:27;0.98;;;0.93;;
31128;SDS011;17777;48.770;8.944;2023-07-20T02:27:53;1.73;;;1.08;;
31128;SDS011;17777;48.770;8.944;2023-07-20T02:30:19;0.80;;;0.80;;
31128;SDS011;17777;48.770;8.944;2023-07-20T02:32:44;1.15;;;0.88;;
31128;SDS011;17777;48.770;8.944;2023-07-20T02:35:13;1.02;;;0.90;;
31128;SDS011;17777;48.770;8.944;2023-07-20T02:37:40;0.90;;;0.90;;
31128;SDS011;17777;48.770;8.944;2023-07-20T02:40:06;3.28;;;1.60;;
31128;SDS011;17777;48.770;8.944;2023-07-20T02:42:32;1.70;;;0.93;;
31128;SDS011;17777;48.770;8.944;2023-07-20T02:44:58;1.08;;;0.98;;
31128;SDS011;17777;48.770;8.944;2023-07-20T02:47:24;1.08;;;0.90;;
31128;SDS011;17777;48.770;8.944;2023-07-20T02:49:50;2.42;;;1.05;;
31128;SDS011;17777;48.770;8.944;2023-07-20T02:52:16;1.00;;;0.90;;
31128;SDS011;17777;48.770;8.944;2023-07-20T02:54:42;1.25;;;1.15;;
31128;SDS011;17777;48.770;8.944;2023-07-20T02:57:07;1.45;;;0.98;;
31128;SDS011;17777;48.770;8.944;2023-07-20T02:59:33;2.28;;;1.20;;
31128;SDS011;17777;48.770;8.944;2023-07-20T03:01:59;2.05;;;0.70;;
31128;SDS011;17777;48.770;8.944;2023-07-20T03:04:25;0.70;;;0.70;;
31128;SDS011;17777;48.770;8.944;2023-07-20T03:06:52;1.15;;;0.90;;
31128;SDS011;17777;48.770;8.944;2023-07-20T03:09:18;1.35;;;0.90;;
31128;SDS011;17777;48.770;8.944;2023-07-20T03:11:44;1.95;;;0.80;;
31128;SDS011;17777;48.770;8.944;2023-07-20T03:14:11;4.55;;;1.05;;
31128;SDS011;17777;48.770;8.944;2023-07-20T03:16:38;0.90;;;0.90;;
31128;SDS011;17777;48.770;8.944;2023-07-20T03:19:04;2.30;;;1.02;;
31128;SDS011;17777;48.770;8.944;2023-07-20T03:21:30;1.20;;;0.90;;
31128;SDS011;17777;48.770;8.944;2023-07-20T03:23:58;1.35;;;1.10;;
31128;SDS011;17777;48.770;8.944;2023-07-20T03:26:24;0.88;;;0.88;;
31128;SDS011;17777;48.770;8.944;2023-07-20T03:28:50;1.52;;;1.00;;
31128;SDS011;17777;48.770;8.944;2023-07-20T03:31:16;1.17;;;0.88;;
31128;SDS011;17777;48.770;8.944;2023-07-20T03:33:42;1.83;;;0.98;;
31128;SDS011;17777;48.770;8.944;2023-07-20T03:36:07;1.77;;;1.00;;
31128;SDS011;17777;48.770;8.944;2023-07-20T03:38:35;1.83;;;1.00;;
31128;SDS011;17777;48.770;8.944;2023-07-20T03:41:00;1.48;;;1.00;;
31128;SDS011;17777;48.770;8.944;2023-07-20T03:43:27;1.02;;;0.82;;
31128;SDS011;17777;48.770;8.944;2023-07-20T03:45:53;1.15;;;1.05;;
31128;SDS011;17777;48.770;8.944;2023-07-20T03:48:21;1.20;;;0.90;;
31128;SDS011;17777;48.770;8.944;2023-07-20T03:50:50;3.22;;;1.00;;
31128;SDS011;17777;48.770;8.944;2023-07-20T03:53:18;1.30;;;1.00;;
31128;SDS011;17777;48.770;8.944;2023-07-20T03:55:45;0.82;;;0.77;;
31128;SDS011;17777;48.770;8.944;2023-07-20T03:58:13;1.60;;;1.00;;
31128;SDS011;17777;48.770;8.944;2023-07-20T04:00:39;1.00;;;0.75;;
31128;SDS011;17777;48.770;8.944;2023-07-20T04:03:06;7.53;;;1.15;;
31128;SDS011;17777;48.770;8.944;2023-07-20T04:05:31;2.45;;;1.17;;
31128;SDS011;17777;48.770;8.944;2023-07-20T04:07:58;1.73;;;1.20;;
31128;SDS011;17777;48.770;8.944;2023-07-20T04:10:23;1.20;;;1.00;;
31128;SDS011;17777;48.770;8.944;2023-07-20T04:12:51;2.22;;;1.30;;
31128;SDS011;17777;48.770;8.944;2023-07-20T04:15:17;1.77;;;1.10;;
31128;SDS011;17777;48.770;8.944;2023-07-20T04:17:42;2.17;;;1.10;;
31128;SDS011;17777;48.770;8.944;2023-07-20T04:20:10;1.73;;;1.00;;
31128;SDS011;17777;48.770;8.944;2023-07-20T04:22:36;1.23;;;1.00;;
31128;SDS011;17777;48.770;8.944;2023-07-20T04:25:03;1.38;;;1.23;;
31128;SDS011;17777;48.770;8.944;2023-07-20T04:27:29;2.25;;;1.30;;
31128;SDS011;17777;48.770;8.944;2023-07-20T04:29:58;1.20;;;1.10;;
31128;SDS011;17777;48.770;8.944;2023-07-20T04:32:28;2.13;;;1.30;;
31128;SDS011;17777;48.770;8.944;2023-07-20T04:34:54;1.33;;;1.08;;
31128;SDS011;17777;48.770;8.944;2023-07-20T04:37:19;3.13;;;1.20;;
31128;SDS011;17777;48.770;8.944;2023-07-20T04:39:47;1.02;;;0.88;;
31128;SDS011;17777;48.770;8.944;2023-07-20T04:42:13;1.30;;;1.00;;
31128;SDS011;17777;48.770;8.944;2023-07-20T04:44:39;2.03;;;1.00;;
31128;SDS011;17777;48.770;8.944;2023-07-20T04:47:06;2.13;;;1.02;;
31128;SDS011;17777;48.770;8.944;2023-07-20T04:49:36;1.33;;;1.00;;
31128;SDS011;17777;48.770;8.944;2023-07-20T04:52:02;0.90;;;0.85;;
31128;SDS011;17777;48.770;8.944;2023-07-20T04:54:28;2.22;;;0.95;;
31128;SDS011;17777;48.770;8.944;2023-07-20T04:56:54;1.40;;;1.08;;
31128;SDS011;17777;48.770;8.944;2023-07-20T04:59:21;1.10;;;1.00;;
31128;SDS011;17777;48.770;8.944;2023-07-20T05:01:47;1.38;;;1.00;;
31128;SDS011;17777;48.770;8.944;2023-07-20T05:04:14;1.35;;;1.00;;
31128;SDS011;17777;48.770;8.944;2023-07-20T05:06:40;2.03;;;1.40;;
31128;SDS011;17777;48.770;8.944;2023-07-20T05:09:05;1.98;;;1.00;;
31128;SDS011;17777;48.770;8.944;2023-07-20T05:11:32;2.70;;;1.20;;
31128;SDS011;17777;48.770;8.944;2023-07-20T05:13:59;3.95;;;1.20;;
31128;SDS011;17777;48.770;8.944;2023-07-20T05:16:25;2.17;;;1.10;;
31128;SDS011;17777;48.770;8.944;2023-07-20T05:18:52;1.73;;;1.10;;
31128;SDS011;17777;48.770;8.944;2023-07-20T05:21:19;1.83;;;1.13;;
31128;SDS011;17777;48.770;8.944;2023-07-20T05:23:44;3.70;;;1.27;;
31128;SDS011;17777;48.770;8.944;2023-07-20T05:26:13;1.60;;;1.02;;
31128;SDS011;17777;48.770;8.944;2023-07-20T05:28:38;2.47;;;1.17;;
31128;SDS011;17777;48.770;8.944;2023-07-20T05:31:05;1.50;;;1.00;;
31128;SDS011;17777;48.770;8.944;2023-07-20T05:33:31;1.90;;;1.20;;
31128;SDS011;17777;48.770;8.944;2023-07-20T05:35:57;3.28;;;1.30;;
31128;SDS011;17777;48.770;8.944;2023-07-20T05:38:23;1.15;;;0.88;;
31128;SDS011;17777;48.770;8.944;2023-07-20T05:40:49;1.95;;;0.93;;
31128;SDS011;17777;48.770;8.944;2023-07-20T05:43:15;1.42;;;0.90;;
31128;SDS011;17777;48.770;8.944;2023-07-20T05:45:44;2.97;;;1.27;;
31128;SDS011;17777;48.770;8.944;2023-07-20T05:48:10;2.15;;;1.10;;
31128;SDS011;17777;48.770;8.944;2023-07-20T05:50:37;1.48;;;1.08;;
31128;SDS011;17777;48.770;8.944;2023-07-20T05:53:06;2.08;;;1.23;;
31128;SDS011;17777;48.770;8.944;2023-07-20T05:55:32;3.58;;;1.50;;
31128;SDS011;17777;48.770;8.944;2023-07-20T05:57:58;2.50;;;1.50;;
31128;SDS011;17777;48.770;8.944;2023-07-20T06:00:24;2.47;;;1.30;;
31128;SDS011;17777;48.770;8.944;2023-07-20T06:02:54;1.50;;;1.05;;
31128;SDS011;17777;48.770;8.944;2023-07-20T06:05:21;2.17;;;1.20;;
31128;SDS011;17777;48.770;8.944;2023-07-20T06:07:48;1.33;;;1.08;;
31128;SDS011;17777;48.770;8.944;2023-07-20T06:10:14;1.63;;;0.85;;
31128;SDS011;17777;48.770;8.944;2023-07-20T06:12:41;3.53;;;1.13;;
31128;SDS011;17777;48.770;8.944;2023-07-20T06:15:16;1.55;;;1.02;;
31128;SDS011;17777;48.770;8.944;2023-07-20T06:17:54;1.70;;;1.10;;
31128;SDS011;17777;48.770;8.944;2023-07-20T06:20:21;1.50;;;0.98;;
31128;SDS011;17777;48.770;8.944;2023-07-20T06:22:47;2.42;;;1.30;;
31128;SDS011;17777;48.770;8.944;2023-07-20T06:25:13;2.25;;;1.33;;
31128;SDS011;17777;48.770;8.944;2023-07-20T06:27:39;2.55;;;1.00;;
31128;SDS011;17777;48.770;8.944;2023-07-20T06:30:05;1.30;;;0.95;;
31128;SDS011;17777;48.770;8.944;2023-07-20T06:32:31;3.53;;;1.10;;
31128;SDS011;17777;48.770;8.944;2023-07-20T06:34:57;1.27;;;1.02;;
31128;SDS011;17777;48.770;8.944;2023-07-20T06:37:23;0.95;;;0.77;;
31128;SDS011;17777;48.770;8.944;2023-07-20T06:39:49;2.28;;;1.20;;
31128;SDS011;17777;48.770;8.944;2023-07-20T06:42:15;2.53;;;0.98;;
31128;SDS011;17777;48.770;8.944;2023-07-20T06:44:40;1.15;;;0.80;;
31128;SDS011;17777;48.770;8.944;2023-07-20T06:47:06;4.68;;;1.25;;
31128;SDS011;17777;48.770;8.944;2023-07-20T06:49:32;2.17;;;1.10;;
31128;SDS011;17777;48.770;8.944;2023-07-20T06:51:58;1.20;;;0.80;;
31128;SDS011;17777;48.770;8.944;2023-07-20T06:54:24;1.83;;;1.05;;
31128;SDS011;17777;48.770;8.944;2023-07-20T06:56:50;1.88;;;1.10;;
31128;SDS011;17777;48.770;8.944;2023-07-20T06:59:16;1.95;;;1.08;;
31128;SDS011;17777;48.770;8.944;2023-07-20T07:01:42;2.72;;;1.02;;
31128;SDS011;17777;48.770;8.944;2023-07-20T07:04:07;1.63;;;0.90;;
31128;SDS011;17777;48.770;8.944;2023-07-20T07:06:33;2.03;;;0.75;;
31128;SDS011;17777;48.770;8.944;2023-07-20T07:09:00;1.55;;;1.00;;
31128;SDS011;17777;48.770;8.944;2023-07-20T07:11:26;0.93;;;0.80;;
31128;SDS011;17777;48.770;8.944;2023-07-20T07:13:51;1.20;;;0.95;;
31128;SDS011;17777;48.770;8.944;2023-07-20T07:16:17;1.27;;;0.80;;
31128;SDS011;17777;48.770;8.944;2023-07-20T07:18:46;4.30;;;0.70;;
31128;SDS011;17777;48.770;8.944;2023-07-20T07:21:12;1.45;;;0.80;;
31128;SDS011;17777;48.770;8.944;2023-07-20T07:23:38;2.63;;;1.05;;
31128;SDS011;17777;48.770;8.944;2023-07-20T07:26:04;2.03;;;0.85;;
31128;SDS011;17777;48.770;8.944;2023-07-20T07:28:30;2.88;;;1.10;;
31128;SDS011;17777;48.770;8.944;2023-07-20T07:30:57;1.90;;;0.90;;
31128;SDS011;17777;48.770;8.944;2023-07-20T07:33:23;1.88;;;0.75;;
31128;SDS011;17777;48.770;8.944;2023-07-20T07:35:49;0.95;;;0.85;;
31128;SDS011;17777;48.770;8.944;2023-07-20T07:38:18;1.15;;;0.95;;
31128;SDS011;17777;48.770;8.944;2023-07-20T07:40:44;1.75;;;0.68;;
31128;SDS011;17777;48.770;8.944;2023-07-20T07:43:11;0.95;;;0.63;;
31128;SDS011;17777;48.770;8.944;2023-07-20T07:45:39;1.08;;;0.80;;
31128;SDS011;17777;48.770;8.944;2023-07-20T07:48:05;0.60;;;0.60;;
31128;SDS011;17777;48.770;8.944;2023-07-20T07:50:32;1.00;;;0.65;;
31128;SDS011;17777;48.770;8.944;2023-07-20T07:52:59;2.13;;;0.80;;
31128;SDS011;17777;48.770;8.944;2023-07-20T07:55:25;0.95;;;0.82;;
31128;SDS011;17777;48.770;8.944;2023-07-20T07:57:53;1.98;;;0.77;;
31128;SDS011;17777;48.770;8.944;2023-07-20T08:00:19;1.88;;;0.98;;
31128;SDS011;17777;48.770;8.944;2023-07-20T08:02:45;1.60;;;0.90;;
31128;SDS011;17777;48.770;8.944;2023-07-20T08:05:13;1.40;;;0.82;;
31128;SDS011;17777;48.770;8.944;2023-07-20T08:07:39;0.95;;;0.70;;
31128;SDS011;17777;48.770;8.944;2023-07-20T08:10:05;1.95;;;0.80;;
31128;SDS011;17777;48.770;8.944;2023-07-20T08:12:32;0.80;;;0.70;;
31128;SDS011;17777;48.770;8.944;2023-07-20T08:14:58;1.08;;;0.80;;
31128;SDS011;17777;48.770;8.944;2023-07-20T08:17:24;1.02;;;0.90;;
31128;SDS011;17777;48.770;8.944;2023-07-20T08:19:49;0.88;;;0.65;;
31128;SDS011;17777;48.770;8.944;2023-07-20T08:22:15;1.23;;;0.80;;
31128;SDS011;17777;48.770;8.944;2023-07-20T08:24:41;2.53;;;0.90;;
31128;SDS011;17777;48.770;8.944;2023-07-20T08:27:08;0.93;;;0.60;;
31128;SDS011;17777;48.770;8.944;2023-07-20T08:29:35;1.02;;;0.77;;
31128;SDS011;17777;48.770;8.944;2023-07-20T08:32:02;0.95;;;0.85;;
31128;SDS011;17777;48.770;8.944;2023-07-20T08:34:29;1.30;;;0.70;;
31128;SDS011;17777;48.770;8.944;2023-07-20T08:36:55;1.02;;;0.70;;
31128;SDS011;17777;48.770;8.944;2023-07-20T08:39:22;1.60;;;0.80;;
31128;SDS011;17777;48.770;8.944;2023-07-20T08:41:49;1.63;;;0.88;;
31128;SDS011;17777;48.770;8.944;2023-07-20T08:44:17;0.98;;;0.73;;
31128;SDS011;17777;48.770;8.944;2023-07-20T08:46:42;0.68;;;0.65;;
31128;SDS011;17777;48.770;8.944;2023-07-20T08:49:10;1.70;;;0.90;;
31128;SDS011;17777;48.770;8.944;2023-07-20T08:51:36;1.00;;;0.80;;
31128;SDS011;17777;48.770;8.944;2023-07-20T08:54:03;1.30;;;0.70;;
31128;SDS011;17777;48.770;8.944;2023-07-20T08:56:29;1.60;;;0.77;;
31128;SDS011;17777;48.770;8.944;2023-07-20T08:58:59;0.95;;;0.60;;
31128;SDS011;17777;48.770;8.944;2023-07-20T09:01:26;3.70;;;0.80;;
31128;SDS011;17777;48.770;8.944;2023-07-20T09:03:54;2.13;;;0.70;;
31128;SDS011;17777;48.770;8.944;2023-07-20T09:06:20;0.70;;;0.70;;
31128;SDS011;17777;48.770;8.944;2023-07-20T09:08:46;1.13;;;0.90;;
31128;SDS011;17777;48.770;8.944;2023-07-20T09:11:12;0.82;;;0.60;;
31128;SDS011;17777;48.770;8.944;2023-07-20T09:13:38;1.00;;;0.60;;
31128;SDS011;17777;48.770;8.944;2023-07-20T09:16:04;1.48;;;0.80;;
31128;SDS011;17777;48.770;8.944;2023-07-20T09:18:31;0.85;;;0.60;;
31128;SDS011;17777;48.770;8.944;2023-07-20T09:21:02;1.80;;;0.60;;
31128;SDS011;17777;48.770;8.944;2023-07-20T09:23:33;0.68;;;0.57;;
31128;SDS011;17777;48.770;8.944;2023-07-20T09:26:11;0.95;;;0.55;;
31128;SDS011;17777;48.770;8.944;2023-07-20T09:28:57;0.60;;;0.50;;
31128;SDS011;17777;48.770;8.944;2023-07-20T09:31:22;0.57;;;0.50;;
31128;SDS011;17777;48.770;8.944;2023-07-20T09:33:49;2.17;;;0.50;;
31128;SDS011;17777;48.770;8.944;2023-07-20T09:36:17;0.70;;;0.57;;
31128;SDS011;17777;48.770;8.944;2023-07-20T09:38:43;0.95;;;0.68;;
31128;SDS011;17777;48.770;8.944;2023-07-20T09:41:15;1.55;;;0.65;;
31128;SDS011;17777;48.770;8.944;2023-07-20T09:43:46;0.47;;;0.47;;
31128;SDS011;17777;48.770;8.944;2023-07-20T09:46:12;0.50;;;0.50;;
31128;SDS011;17777;48.770;8.944;2023-07-20T09:48:38;0.68;;;0.52;;
31128;SDS011;17777;48.770;8.944;2023-07-20T09:51:04;0.73;;;0.55;;
31128;SDS011;17777;48.770;8.944;2023-07-20T09:53:32;0.65;;;0.57;;
31128;SDS011;17777;48.770;8.944;2023-07-20T09:55:59;0.57;;;0.57;;
31128;SDS011;17777;48.770;8.944;2023-07-20T09:58:26;1.38;;;0.50;;
31128;SDS011;17777;48.770;8.944;2023-07-20T10:00:52;0.80;;;0.57;;
31128;SDS011;17777;48.770;8.944;2023-07-20T10:03:22;0.65;;;0.52;;
31128;SDS011;17777;48.770;8.944;2023-07-20T10:06:08;0.73;;;0.57;;
31128;SDS011;17777;48.770;8.944;2023-07-20T10:08:38;0.80;;;0.60;;
31128;SDS011;17777;48.770;8.944;2023-07-20T10:11:06;1.30;;;0.77;;
31128;SDS011;17777;48.770;8.944;2023-07-20T10:13:38;1.48;;;0.60;;
31128;SDS011;17777;48.770;8.944;2023-07-20T10:16:10;0.60;;;0.50;;
31128;SDS011;17777;48.770;8.944;2023-07-20T10:22:10;0.32;;;0.32;;
31128;SDS011;17777;48.770;8.944;2023-07-20T10:24:41;0.95;;;0.60;;
31128;SDS011;17777;48.770;8.944;2023-07-20T10:27:10;0.50;;;0.40;;
31128;SDS011;17777;48.770;8.944;2023-07-20T10:29:36;1.00;;;0.43;;
31128;SDS011;17777;48.770;8.944;2023-07-20T10:32:03;0.50;;;0.47;;
31128;SDS011;17777;48.770;8.944;2023-07-20T10:34:30;0.60;;;0.50;;
31128;SDS011;17777;48.770;8.944;2023-07-20T10:36:56;0.65;;;0.40;;
31128;SDS011;17777;48.770;8.944;2023-07-20T10:39:22;0.95;;;0.47;;
31128;SDS011;17777;48.770;8.944;2023-07-20T10:42:07;1.83;;;0.50;;
31128;SDS011;17777;48.770;8.944;2023-07-20T10:44:36;0.93;;;0.55;;
31128;SDS011;17777;48.770;8.944;2023-07-20T10:47:08;2.70;;;0.50;;
31128;SDS011;17777;48.770;8.944;2023-07-20T10:49:35;1.42;;;0.50;;
31128;SDS011;17777;48.770;8.944;2023-07-20T10:52:26;0.45;;;0.40;;
31128;SDS011;17777;48.770;8.944;2023-07-20T10:55:14;0.60;;;0.50;;
31128;SDS011;17777;48.770;8.944;2023-07-20T10:57:41;0.65;;;0.40;;
31128;SDS011;17777;48.770;8.944;2023-07-20T11:00:08;0.22;;;0.22;;
31128;SDS011;17777;48.770;8.944;2023-07-20T11:02:46;1.13;;;0.50;;
31128;SDS011;17777;48.770;8.944;2023-07-20T11:08:03;0.50;;;0.40;;
31128;SDS011;17777;48.770;8.944;2023-07-20T11:10:30;0.40;;;0.40;;
31128;SDS011;17777;48.770;8.944;2023-07-20T11:15:48;0.88;;;0.40;;
31128;SDS011;17777;48.770;8.944;2023-07-20T11:18:26;0.82;;;0.60;;
31128;SDS011;17777;48.770;8.944;2023-07-20T11:20:52;0.40;;;0.40;;
31128;SDS011;17777;48.770;8.944;2023-07-20T11:23:21;1.10;;;0.50;;
31128;SDS011;17777;48.770;8.944;2023-07-20T11:25:48;0.40;;;0.40;;
31128;SDS011;17777;48.770;8.944;2023-07-20T11:28:15;0.57;;;0.43;;
31128;SDS011;17777;48.770;8.944;2023-07-20T11:30:41;0.93;;;0.50;;
31128;SDS011;17777;48.770;8.944;2023-07-20T11:33:09;0.55;;;0.45;;
31128;SDS011;17777;48.770;8.944;2023-07-20T11:35:36;0.57;;;0.40;;
31128;SDS011;17777;48.770;8.944;2023-07-20T11:38:08;1.27;;;0.55;;
31128;SDS011;17777;48.770;8.944;2023-07-20T11:40:34;0.70;;;0.60;;
31128;SDS011;17777;48.770;8.944;2023-07-20T11:43:00;0.40;;;0.40;;
31128;SDS011;17777;48.770;8.944;2023-07-20T11:45:26;1.00;;;0.70;;
31128;SDS011;17777;48.770;8.944;2023-07-20T11:47:52;0.63;;;0.40;;
31128;SDS011;17777;48.770;8.944;2023-07-20T11:50:18;1.00;;;0.30;;
31128;SDS011;17777;48.770;8.944;2023-07-20T11:52:44;0.50;;;0.50;;
31128;SDS011;17777;48.770;8.944;2023-07-20T11:55:10;0.90;;;0.52;;
31128;SDS011;17777;48.770;8.944;2023-07-20T11:57:37;0.60;;;0.50;;
31128;SDS011;17777;48.770;8.944;2023-07-20T12:00:04;1.83;;;0.60;;
31128;SDS011;17777;48.770;8.944;2023-07-20T12:02:37;0.95;;;0.50;;
31128;SDS011;17777;48.770;8.944;2023-07-20T12:05:06;0.40;;;0.40;;
31128;SDS011;17777;48.770;8.944;2023-07-20T12:07:35;0.60;;;0.50;;
31128;SDS011;17777;48.770;8.944;2023-07-20T12:12:34;0.63;;;0.45;;
31128;SDS011;17777;48.770;8.944;2023-07-20T12:17:49;0.70;;;0.60;;
31128;SDS011;17777;48.770;8.944;2023-07-20T12:23:01;2.15;;;0.40;;
31128;SDS011;17777;48.770;8.944;2023-07-20T12:25:34;1.02;;;0.55;;
31128;SDS011;17777;48.770;8.944;2023-07-20T12:28:07;0.60;;;0.50;;
31128;SDS011;17777;48.770;8.944;2023-07-20T12:30:36;1.55;;;0.40;;
31128;SDS011;17777;48.770;8.944;2023-07-20T12:33:03;0.40;;;0.40;;
31128;SDS011;17777;48.770;8.944;2023-07-20T12:35:30;0.50;;;0.50;;
31128;SDS011;17777;48.770;8.944;2023-07-20T12:37:56;0.88;;;0.43;;
31128;SDS011;17777;48.770;8.944;2023-07-20T12:40:23;0.40;;;0.40;;
31128;SDS011;17777;48.770;8.944;2023-07-20T12:42:49;0.50;;;0.45;;
31128;SDS011;17777;48.770;8.944;2023-07-20T12:45:15;0.70;;;0.40;;
31128;SDS011;17777;48.770;8.944;2023-07-20T12:47:41;0.40;;;0.40;;
31128;SDS011;17777;48.770;8.944;2023-07-20T12:50:09;0.30;;;0.30;;
31128;SDS011;17777;48.770;8.944;2023-07-20T12:52:36;1.08;;;0.38;;
31128;SDS011;17777;48.770;8.944;2023-07-20T12:55:03;1.15;;;0.50;;
31128;SDS011;17777;48.770;8.944;2023-07-20T12:57:33;1.58;;;0.63;;
31128;SDS011;17777;48.770;8.944;2023-07-20T13:00:01;2.88;;;0.50;;
31128;SDS011;17777;48.770;8.944;2023-07-20T13:02:29;0.57;;;0.40;;
31128;SDS011;17777;48.770;8.944;2023-07-20T13:04:57;0.50;;;0.40;;
31128;SDS011;17777;48.770;8.944;2023-07-20T13:07:36;0.80;;;0.40;;
31128;SDS011;17777;48.770;8.944;2023-07-20T13:10:04;0.60;;;0.30;;
31128;SDS011;17777;48.770;8.944;2023-07-20T13:12:31;0.30;;;0.30;;
31128;SDS011;17777;48.770;8.944;2023-07-20T13:14:58;0.60;;;0.47;;
31128;SDS011;17777;48.770;8.944;2023-07-20T13:17:32;0.40;;;0.40;;
31128;SDS011;17777;48.770;8.944;2023-07-20T13:20:02;0.35;;;0.35;;
31128;SDS011;17777;48.770;8.944;2023-07-20T13:22:32;0.57;;;0.40;;
31128;SDS011;17777;48.770;8.944;2023-07-20T13:24:59;0.30;;;0.30;;
31128;SDS011;17777;48.770;8.944;2023-07-20T13:27:25;0.50;;;0.50;;
31128;SDS011;17777;48.770;8.944;2023-07-20T13:29:51;0.77;;;0.47;;
31128;SDS011;17777;48.770;8.944;2023-07-20T13:32:17;0.40;;;0.40;;
31128;SDS011;17777;48.770;8.944;2023-07-20T13:34:43;1.40;;;0.68;;
31128;SDS011;17777;48.770;8.944;2023-07-20T13:37:10;0.40;;;0.40;;
31128;SDS011;17777;48.770;8.944;2023-07-20T13:39:36;0.85;;;0.60;;
31128;SDS011;17777;48.770;8.944;2023-07-20T13:42:03;0.95;;;0.57;;
31128;SDS011;17777;48.770;8.944;2023-07-20T13:44:36;0.70;;;0.40;;
31128;SDS011;17777;48.770;8.944;2023-07-20T13:47:02;0.57;;;0.40;;
31128;SDS011;17777;48.770;8.944;2023-07-20T13:49:32;0.90;;;0.52;;
31128;SDS011;17777;48.770;8.944;2023-07-20T13:51:58;0.57;;;0.50;;
31128;SDS011;17777;48.770;8.944;2023-07-20T13:54:24;0.85;;;0.40;;
31128;SDS011;17777;48.770;8.944;2023-07-20T13:56:50;0.40;;;0.40;;
31128;SDS011;17777;48.770;8.944;2023-07-20T13:59:17;0.70;;;0.50;;
31128;SDS011;17777;48.770;8.944;2023-07-20T14:01:43;0.40;;;0.40;;
31128;SDS011;17777;48.770;8.944;2023-07-20T14:04:09;0.93;;;0.40;;
31128;SDS011;17777;48.770;8.944;2023-07-20T14:06:35;0.80;;;0.50;;
31128;SDS011;17777;48.770;8.944;2023-07-20T14:09:01;0.85;;;0.50;;
31128;SDS011;17777;48.770;8.944;2023-07-20T14:11:28;0.50;;;0.50;;
31128;SDS011;17777;48.770;8.944;2023-07-20T14:13:54;1.42;;;0.50;;
31128;SDS011;17777;48.770;8.944;2023-07-20T14:16:20;0.40;;;0.30;;
31128;SDS011;17777;48.770;8.944;2023-07-20T14:18:47;0.50;;;0.50;;
31128;SDS011;17777;48.770;8.944;2023-07-20T14:21:13;0.65;;;0.50;;
31128;SDS011;17777;48.770;8.944;2023-07-20T14:23:46;0.47;;;0.47;;
31128;SDS011;17777;48.770;8.944;2023-07-20T14:26:14;0.60;;;0.60;;
31128;SDS011;17777;48.770;8.944;2023-07-20T14:28:41;1.77;;;0.47;;
31128;SDS011;17777;48.770;8.944;2023-07-20T14:31:07;1.40;;;0.57;;
31128;SDS011;17777;48.770;8.944;2023-07-20T14:33:33;0.60;;;0.50;;
31128;SDS011;17777;48.770;8.944;2023-07-20T14:35:59;0.40;;;0.40;;
31128;SDS011;17777;48.770;8.944;2023-07-20T14:38:26;0.40;;;0.40;;
31128;SDS011;17777;48.770;8.944;2023-07-20T14:40:53;0.68;;;0.55;;
31128;SDS011;17777;48.770;8.944;2023-07-20T14:43:19;0.45;;;0.40;;
31128;SDS011;17777;48.770;8.944;2023-07-20T14:45:46;0.60;;;0.60;;
31128;SDS011;17777;48.770;8.944;2023-07-20T14:48:12;2.20;;;0.40;;
31128;SDS011;17777;48.770;8.944;2023-07-20T14:50:37;0.28;;;0.28;;
31128;SDS011;17777;48.770;8.944;2023-07-20T14:53:04;0.65;;;0.35;;
31128;SDS011;17777;48.770;8.944;2023-07-20T14:55:29;0.57;;;0.40;;
31128;SDS011;17777;48.770;8.944;2023-07-20T14:57:55;0.52;;;0.50;;
31128;SDS011;17777;48.770;8.944;2023-07-20T15:00:21;0.43;;;0.43;;
31128;SDS011;17777;48.770;8.944;2023-07-20T15:02:47;0.50;;;0.50;;
31128;SDS011;17777;48.770;8.944;2023-07-20T15:05:17;0.85;;;0.52;;
31128;SDS011;17777;48.770;8.944;2023-07-20T15:07:47;0.90;;;0.35;;
31128;SDS011;17777;48.770;8.944;2023-07-20T15:10:12;0.47;;;0.47;;
31128;SDS011;17777;48.770;8.944;2023-07-20T15:12:38;0.95;;;0.43;;
31128;SDS011;17777;48.770;8.944;2023-07-20T15:15:11;1.20;;;0.60;;
31128;SDS011;17777;48.770;8.944;2023-07-20T15:17:40;1.23;;;0.60;;